TAM3912 SBSP-SBRJ
Flight info
| Callsign | TAM3912 |
|---|---|
| Flight time | 0h 36m |
| Altitude | 25000 |
| Route | NIBRU UZ171 KEVUN |
| Aircraft | A319/M-SDE3FGHIRWY/LB1 |
Departure
| Time | 2026-05-06 14:42 |
|---|---|
| Airport | Congonhas–Deputado Freitas Nobre Airport (SBSP) |
Arrival
| Time | 2026-05-06 15:18 |
|---|---|
| Airport | Santos Dumont Airport (SBRJ) |
| Time | Latitude | Longitude | Altitude | Speed | Heading |
|---|---|---|---|---|---|
| 2026-05-06 14:24 | -23.62512 | -46.65968 | 2601 ft | 0 kts | 237° |
| 2026-05-06 14:36 | -23.62508 | -46.65962 | 2600 ft | 4 kts | 237° |
| 2026-05-06 14:36 | -23.62495 | -46.65937 | 2601 ft | 4 kts | 257° |
| 2026-05-06 14:37 | -23.62498 | -46.65919 | 2601 ft | 3 kts | 327° |
| 2026-05-06 14:37 | -23.62502 | -46.65916 | 2601 ft | 0 kts | 327° |
| 2026-05-06 14:39 | -23.62493 | -46.65922 | 2601 ft | 3 kts | 334° |
| 2026-05-06 14:40 | -23.62461 | -46.65919 | 2601 ft | 7 kts | 5° |
| 2026-05-06 14:40 | -23.62401 | -46.65940 | 2601 ft | 12 kts | 330° |
| 2026-05-06 14:40 | -23.62315 | -46.65997 | 2600 ft | 17 kts | 328° |
| 2026-05-06 14:40 | -23.62211 | -46.66062 | 2599 ft | 14 kts | 334° |
| 2026-05-06 14:41 | -23.62133 | -46.66116 | 2599 ft | 12 kts | 327° |
| 2026-05-06 14:41 | -23.62048 | -46.66122 | 2595 ft | 17 kts | 41° |
| 2026-05-06 14:41 | -23.62064 | -46.66065 | 2593 ft | 9 kts | 146° |
| 2026-05-06 14:41 | -23.62279 | -46.65915 | 2600 ft | 79 kts | 147° |
| 2026-05-06 14:42 | -23.62988 | -46.65421 | 2616 ft | 159 kts | 146° |
| 2026-05-06 14:42 | -23.63936 | -46.64749 | 3305 ft | 160 kts | 145° |
| 2026-05-06 14:42 | -23.64782 | -46.63924 | 3695 ft | 170 kts | 122° |
| 2026-05-06 14:42 | -23.65364 | -46.62734 | 4005 ft | 187 kts | 116° |
| 2026-05-06 14:43 | -23.65996 | -46.61412 | 4272 ft | 208 kts | 117° |
| 2026-05-06 14:43 | -23.66721 | -46.59939 | 4619 ft | 232 kts | 117° |
| 2026-05-06 14:43 | -23.67335 | -46.58225 | 5027 ft | 256 kts | 97° |
| 2026-05-06 14:43 | -23.67227 | -46.56245 | 5680 ft | 267 kts | 82° |
| 2026-05-06 14:44 | -23.67015 | -46.54211 | 6571 ft | 270 kts | 84° |
| 2026-05-06 14:44 | -23.66836 | -46.52157 | 7447 ft | 273 kts | 84° |
| 2026-05-06 14:44 | -23.66669 | -46.50105 | 8280 ft | 277 kts | 84° |
| 2026-05-06 14:45 | -23.66319 | -46.45850 | 9967 ft | 285 kts | 84° |
| 2026-05-06 14:45 | -23.66133 | -46.43667 | 10555 ft | 298 kts | 84° |
| 2026-05-06 14:45 | -23.65931 | -46.41332 | 10884 ft | 317 kts | 84° |
| 2026-05-06 14:45 | -23.65721 | -46.38912 | 11485 ft | 323 kts | 84° |
| 2026-05-06 14:46 | -23.65508 | -46.36457 | 12181 ft | 327 kts | 84° |
| 2026-05-06 14:46 | -23.65291 | -46.33973 | 12848 ft | 331 kts | 85° |
| 2026-05-06 14:46 | -23.65066 | -46.31460 | 13502 ft | 335 kts | 85° |
| 2026-05-06 14:46 | -23.64837 | -46.28917 | 14132 ft | 339 kts | 85° |
| 2026-05-06 14:47 | -23.64605 | -46.26338 | 14671 ft | 343 kts | 85° |
| 2026-05-06 14:47 | -23.64372 | -46.23736 | 15207 ft | 347 kts | 85° |
| 2026-05-06 14:47 | -23.64138 | -46.21096 | 15755 ft | 351 kts | 85° |
| 2026-05-06 14:47 | -23.63899 | -46.18433 | 16298 ft | 355 kts | 85° |
| 2026-05-06 14:48 | -23.63655 | -46.15737 | 16836 ft | 359 kts | 85° |
| 2026-05-06 14:48 | -23.63408 | -46.13016 | 17384 ft | 363 kts | 85° |
| 2026-05-06 14:48 | -23.63158 | -46.10266 | 17931 ft | 366 kts | 86° |
| 2026-05-06 14:48 | -23.62907 | -46.07487 | 18476 ft | 370 kts | 86° |
| 2026-05-06 14:49 | -23.62654 | -46.04676 | 18949 ft | 374 kts | 86° |
| 2026-05-06 14:49 | -23.62399 | -46.01843 | 19435 ft | 377 kts | 86° |
| 2026-05-06 14:49 | -23.62141 | -45.98981 | 19923 ft | 380 kts | 86° |
| 2026-05-06 14:49 | -23.61879 | -45.96098 | 20421 ft | 384 kts | 85° |
| 2026-05-06 14:50 | -23.61616 | -45.93227 | 20901 ft | 387 kts | 85° |
| 2026-05-06 14:50 | -23.61346 | -45.90294 | 21399 ft | 391 kts | 85° |
| 2026-05-06 14:50 | -23.61074 | -45.87335 | 21880 ft | 394 kts | 85° |
| 2026-05-06 14:50 | -23.60797 | -45.84345 | 22366 ft | 397 kts | 85° |
| 2026-05-06 14:51 | -23.60517 | -45.81331 | 22849 ft | 401 kts | 85° |
| 2026-05-06 14:51 | -23.60235 | -45.78303 | 23343 ft | 404 kts | 85° |
| 2026-05-06 14:51 | -23.59952 | -45.75237 | 23822 ft | 408 kts | 85° |
| 2026-05-06 14:51 | -23.59670 | -45.72151 | 24237 ft | 411 kts | 86° |
| 2026-05-06 14:52 | -23.59386 | -45.69041 | 24649 ft | 414 kts | 86° |
| 2026-05-06 14:52 | -23.59095 | -45.65903 | 25030 ft | 417 kts | 86° |
| 2026-05-06 14:52 | -23.58802 | -45.62752 | 25162 ft | 418 kts | 86° |
| 2026-05-06 14:52 | -23.58509 | -45.59647 | 25195 ft | 409 kts | 86° |
| 2026-05-06 14:53 | -23.58211 | -45.56498 | 25190 ft | 424 kts | 86° |
| 2026-05-06 14:53 | -23.57906 | -45.53247 | 25197 ft | 438 kts | 86° |
| 2026-05-06 14:53 | -23.57594 | -45.49916 | 25189 ft | 445 kts | 86° |
| 2026-05-06 14:53 | -23.57211 | -45.46563 | 25189 ft | 448 kts | 80° |
| 2026-05-06 14:54 | -23.56357 | -45.43285 | 25200 ft | 450 kts | 73° |
| 2026-05-06 14:54 | -23.55388 | -45.40043 | 25191 ft | 450 kts | 73° |
| 2026-05-06 14:54 | -23.54424 | -45.36798 | 25189 ft | 450 kts | 73° |
| 2026-05-06 14:54 | -23.53445 | -45.33555 | 25192 ft | 450 kts | 73° |
| 2026-05-06 14:55 | -23.52453 | -45.30325 | 25194 ft | 450 kts | 72° |
| 2026-05-06 14:55 | -23.51460 | -45.27144 | 25197 ft | 449 kts | 72° |
| 2026-05-06 14:55 | -23.50444 | -45.23926 | 25191 ft | 449 kts | 72° |
| 2026-05-06 14:55 | -23.49423 | -45.20712 | 25187 ft | 449 kts | 72° |
| 2026-05-06 14:56 | -23.48401 | -45.17494 | 25183 ft | 449 kts | 72° |
| 2026-05-06 14:56 | -23.47385 | -45.14290 | 25184 ft | 449 kts | 72° |
| 2026-05-06 14:56 | -23.46367 | -45.11074 | 25185 ft | 448 kts | 72° |
| 2026-05-06 14:56 | -23.45354 | -45.07858 | 25184 ft | 448 kts | 72° |
| 2026-05-06 14:57 | -23.44344 | -45.04648 | 25185 ft | 448 kts | 72° |
| 2026-05-06 14:57 | -23.43334 | -45.01434 | 25186 ft | 448 kts | 72° |
| 2026-05-06 14:57 | -23.42321 | -44.98225 | 25187 ft | 450 kts | 72° |
| 2026-05-06 14:57 | -23.41287 | -44.94963 | 25191 ft | 461 kts | 72° |
| 2026-05-06 14:58 | -23.40239 | -44.91667 | 25188 ft | 467 kts | 72° |
| 2026-05-06 14:58 | -23.39172 | -44.88315 | 25191 ft | 469 kts | 72° |
| 2026-05-06 14:58 | -23.38106 | -44.84962 | 25192 ft | 469 kts | 72° |
| 2026-05-06 14:58 | -23.37031 | -44.81582 | 25182 ft | 470 kts | 72° |
| 2026-05-06 14:59 | -23.35970 | -44.78248 | 25192 ft | 470 kts | 72° |
| 2026-05-06 14:59 | -23.34896 | -44.74872 | 25187 ft | 470 kts | 72° |
| 2026-05-06 14:59 | -23.33826 | -44.71505 | 25190 ft | 470 kts | 72° |
| 2026-05-06 14:59 | -23.32767 | -44.68179 | 25182 ft | 470 kts | 72° |
| 2026-05-06 15:00 | -23.31695 | -44.64819 | 25180 ft | 470 kts | 72° |
| 2026-05-06 15:00 | -23.30618 | -44.61448 | 25185 ft | 470 kts | 71° |
| 2026-05-06 15:00 | -23.29565 | -44.58160 | 25183 ft | 470 kts | 71° |
| 2026-05-06 15:00 | -23.28474 | -44.54760 | 25178 ft | 470 kts | 71° |
| 2026-05-06 15:01 | -23.27397 | -44.51400 | 25150 ft | 470 kts | 71° |
| 2026-05-06 15:01 | -23.26320 | -44.48044 | 24915 ft | 470 kts | 71° |
| 2026-05-06 15:01 | -23.25243 | -44.44684 | 24174 ft | 470 kts | 71° |
| 2026-05-06 15:01 | -23.24170 | -44.41337 | 23224 ft | 475 kts | 71° |
| 2026-05-06 15:02 | -23.23447 | -44.39080 | 22623 ft | 475 kts | 71° |
| 2026-05-06 15:02 | -23.21996 | -44.34548 | 21496 ft | 474 kts | 71° |
| 2026-05-06 15:02 | -23.20921 | -44.31205 | 21195 ft | 460 kts | 71° |
| 2026-05-06 15:02 | -23.20229 | -44.29060 | 21103 ft | 449 kts | 71° |
| 2026-05-06 15:03 | -23.19206 | -44.25888 | 20214 ft | 441 kts | 71° |
| 2026-05-06 15:03 | -23.17870 | -44.21743 | 18782 ft | 436 kts | 72° |
| 2026-05-06 15:03 | -23.16871 | -44.18644 | 17651 ft | 433 kts | 71° |
| 2026-05-06 15:03 | -23.15876 | -44.15570 | 16659 ft | 430 kts | 71° |
| 2026-05-06 15:04 | -23.15211 | -44.13516 | 16190 ft | 429 kts | 71° |
| 2026-05-06 15:04 | -23.14219 | -44.10453 | 15511 ft | 427 kts | 71° |
| 2026-05-06 15:04 | -23.13249 | -44.07452 | 14851 ft | 424 kts | 71° |
| 2026-05-06 15:04 | -23.12269 | -44.04426 | 14160 ft | 422 kts | 71° |
| 2026-05-06 15:05 | -23.11294 | -44.01421 | 13403 ft | 415 kts | 70° |
| 2026-05-06 15:05 | -23.10343 | -43.98495 | 12703 ft | 406 kts | 70° |
| 2026-05-06 15:05 | -23.09411 | -43.95627 | 11990 ft | 398 kts | 70° |
| 2026-05-06 15:05 | -23.08505 | -43.92833 | 11321 ft | 395 kts | 71° |
| 2026-05-06 15:06 | -23.07608 | -43.90064 | 11134 ft | 380 kts | 71° |
| 2026-05-06 15:06 | -23.06749 | -43.87411 | 11010 ft | 363 kts | 71° |
| 2026-05-06 15:06 | -23.05933 | -43.84900 | 10900 ft | 348 kts | 70° |
| 2026-05-06 15:06 | -23.05142 | -43.82469 | 10785 ft | 335 kts | 71° |
| 2026-05-06 15:07 | -23.04378 | -43.80126 | 10668 ft | 323 kts | 71° |
| 2026-05-06 15:07 | -23.03640 | -43.77868 | 10557 ft | 312 kts | 70° |
| 2026-05-06 15:07 | -23.02922 | -43.75676 | 10442 ft | 303 kts | 71° |
| 2026-05-06 15:07 | -23.02224 | -43.73540 | 10321 ft | 295 kts | 70° |
| 2026-05-06 15:08 | -23.01552 | -43.71482 | 10156 ft | 290 kts | 71° |
| 2026-05-06 15:08 | -23.00878 | -43.69416 | 9711 ft | 289 kts | 71° |
| 2026-05-06 15:08 | -23.00213 | -43.67378 | 9323 ft | 286 kts | 71° |
| 2026-05-06 15:08 | -22.99545 | -43.65338 | 8940 ft | 288 kts | 71° |
| 2026-05-06 15:09 | -22.98878 | -43.63301 | 8670 ft | 287 kts | 71° |
| 2026-05-06 15:09 | -22.98208 | -43.61262 | 8355 ft | 283 kts | 70° |
| 2026-05-06 15:09 | -22.97552 | -43.59262 | 7862 ft | 281 kts | 70° |
| 2026-05-06 15:09 | -22.96899 | -43.57266 | 7423 ft | 278 kts | 71° |
| 2026-05-06 15:10 | -22.96254 | -43.55285 | 6906 ft | 277 kts | 71° |
| 2026-05-06 15:10 | -22.95614 | -43.53322 | 6472 ft | 274 kts | 70° |
| 2026-05-06 15:10 | -22.94984 | -43.51388 | 6084 ft | 270 kts | 70° |
| 2026-05-06 15:10 | -22.94236 | -43.49551 | 5781 ft | 262 kts | 65° |
| 2026-05-06 15:11 | -22.93479 | -43.47792 | 5523 ft | 253 kts | 65° |
| 2026-05-06 15:11 | -22.92756 | -43.46082 | 5270 ft | 245 kts | 66° |
| 2026-05-06 15:11 | -22.92058 | -43.44415 | 5026 ft | 240 kts | 66° |
| 2026-05-06 15:11 | -22.91384 | -43.42808 | 4776 ft | 232 kts | 65° |
| 2026-05-06 15:12 | -22.90724 | -43.41244 | 4504 ft | 223 kts | 65° |
| 2026-05-06 15:12 | -22.90090 | -43.39742 | 4239 ft | 214 kts | 65° |
| 2026-05-06 15:12 | -22.89493 | -43.38332 | 3993 ft | 203 kts | 65° |
| 2026-05-06 15:12 | -22.88916 | -43.36971 | 3754 ft | 195 kts | 65° |
| 2026-05-06 15:13 | -22.88354 | -43.35640 | 3531 ft | 194 kts | 65° |
| 2026-05-06 15:13 | -22.87889 | -43.34263 | 3325 ft | 192 kts | 70° |
| 2026-05-06 15:13 | -22.87456 | -43.32909 | 3069 ft | 189 kts | 70° |
| 2026-05-06 15:13 | -22.87029 | -43.31580 | 2837 ft | 183 kts | 70° |
| 2026-05-06 15:14 | -22.86615 | -43.30290 | 2589 ft | 178 kts | 71° |
| 2026-05-06 15:14 | -22.86217 | -43.29056 | 2373 ft | 169 kts | 71° |
| 2026-05-06 15:14 | -22.85837 | -43.27877 | 2166 ft | 161 kts | 71° |
| 2026-05-06 15:14 | -22.85518 | -43.26746 | 1985 ft | 158 kts | 82° |
| 2026-05-06 15:15 | -22.85579 | -43.25570 | 1791 ft | 156 kts | 99° |
| 2026-05-06 15:15 | -22.85750 | -43.24416 | 1580 ft | 156 kts | 99° |
| 2026-05-06 15:15 | -22.85914 | -43.23266 | 1382 ft | 154 kts | 99° |
| 2026-05-06 15:15 | -22.86076 | -43.22123 | 1212 ft | 149 kts | 99° |
| 2026-05-06 15:16 | -22.86228 | -43.21053 | 1081 ft | 139 kts | 99° |
| 2026-05-06 15:16 | -22.86374 | -43.20028 | 1013 ft | 136 kts | 99° |
| 2026-05-06 15:16 | -22.86526 | -43.19016 | 946 ft | 136 kts | 99° |
| 2026-05-06 15:16 | -22.86729 | -43.18020 | 812 ft | 135 kts | 110° |
| 2026-05-06 15:17 | -22.87214 | -43.17156 | 712 ft | 135 kts | 131° |
| 2026-05-06 15:17 | -22.87962 | -43.16555 | 574 ft | 136 kts | 156° |
| 2026-05-06 15:17 | -22.88888 | -43.16423 | 390 ft | 135 kts | 176° |
| 2026-05-06 15:17 | -22.89817 | -43.16358 | 199 ft | 133 kts | 176° |
| 2026-05-06 15:18 | -22.90728 | -43.16304 | 29 ft | 127 kts | 174° |
| 2026-05-06 15:18 | -22.91330 | -43.16262 | 20 ft | 28 kts | 178° |
| 2026-05-06 15:18 | -22.91489 | -43.16253 | 22 ft | 11 kts | 177° |
| 2026-05-06 15:18 | -22.91522 | -43.16307 | 20 ft | 9 kts | 269° |
| 2026-05-06 15:19 | -22.91521 | -43.16377 | 21 ft | 7 kts | 283° |
| 2026-05-06 15:19 | -22.91492 | -43.16410 | 22 ft | 6 kts | 317° |
| 2026-05-06 15:19 | -22.91454 | -43.16448 | 22 ft | 8 kts | 317° |
| 2026-05-06 15:19 | -22.91407 | -43.16495 | 22 ft | 9 kts | 321° |
| 2026-05-06 15:20 | -22.91353 | -43.16504 | 23 ft | 7 kts | 357° |
| 2026-05-06 15:20 | -22.91290 | -43.16508 | 24 ft | 11 kts | 356° |
| 2026-05-06 15:20 | -22.91223 | -43.16512 | 22 ft | 5 kts | 356° |
| 2026-05-06 15:20 | -22.91207 | -43.16546 | 22 ft | 7 kts | 265° |
| 2026-05-06 15:21 | -22.91209 | -43.16577 | 22 ft | 3 kts | 266° |
| 2026-05-06 15:21 | -22.91209 | -43.16585 | 22 ft | 0 kts | 267° |